West Peterborough, New Hampshire
Current Conditions -  °F | °C
As of 4:52 PM on Sunday 23 Nov 2014 (Local Time) from KAFN Reporting Station
Overcast Overcast  
Wind Chill: 43°   Ceiling: 9000
Heat Index: 45°   Visibility: 10mi
Dew Point: 36°   Wind: 5mph
Humidity: 71%   Direction: 190°S
Pressure: 30.1"   Gusts: NA
Location:  42.89°N, 71.99°W
Report Text: KAFN 232152Z AUTO 19004KT 10SM BKN090 OVC110 07/02 A3010 RMK AO2 SLP205 T00720022
Loading
Personal Weather Stations






























Interactive Weather Map New forecast layout! Learn more

10-Day Weather Forecast

Advertisements
Track Severe Weather on mobile